Time;durP1;ratioP1;P1;durP2;ratioP2;P2;SDS_P1;SDS_P2;PMS_P1;PMS_P2;Temp;Humidity;BMP_temperature;BMP_pressure;BME280_temperature;BME280_humidity;BME280_pressure;Samples;Min_cycle;Max_cycle;Signal;HPM_P1;HPM_P2
2022/11/23 00:00:08;;;;;;;15.93;6.20;;;7.40;99.90;;;;;;5035181;28;20480;-61
2022/11/23 00:02:36;;;;;;;20.20;7.47;;;7.40;99.90;;;;;;5034323;28;21169;-61
2022/11/23 00:05:03;;;;;;;29.00;9.63;;;7.50;99.90;;;;;;5030149;28;20487;-62
2022/11/23 00:07:30;;;;;;;19.43;8.40;;;7.40;99.90;;;;;;5031037;28;20518;-60
2022/11/23 00:09:56;;;;;;;19.93;7.63;;;6.30;99.90;;;;;;5031657;28;20479;-61
2022/11/23 00:12:23;;;;;;;12.07;5.20;;;7.40;99.90;;;;;;5033185;28;20494;-60
2022/11/23 00:14:50;;;;;;;22.80;9.30;;;7.40;99.90;;;;;;5032297;28;20488;-60
2022/11/23 00:17:17;;;;;;;18.27;7.13;;;7.50;99.90;;;;;;5034583;28;20483;-60
2022/11/23 00:19:45;;;;;;;23.27;9.53;;;7.50;99.90;;;;;;5036242;28;20854;-60
2022/11/23 00:22:11;;;;;;;12.40;5.43;;;7.50;99.90;;;;;;5037184;28;20480;-61
2022/11/23 00:24:38;;;;;;;21.47;9.30;;;7.50;99.90;;;;;;5032662;28;20523;-61
2022/11/23 00:27:05;;;;;;;19.80;7.13;;;7.50;99.90;;;;;;5033233;28;20667;-61
2022/11/23 00:29:31;;;;;;;29.07;8.43;;;7.50;99.90;;;;;;5035800;28;20909;-60
2022/11/23 00:31:58;;;;;;;20.30;6.80;;;7.40;99.90;;;;;;5036423;28;20488;-60
2022/11/23 00:34:25;;;;;;;22.40;8.90;;;7.50;99.90;;;;;;5036501;28;20487;-61
2022/11/23 00:36:53;;;;;;;21.97;8.93;;;7.50;99.90;;;;;;5033698;28;20973;-61
2022/11/23 00:39:19;;;;;;;17.70;6.40;;;7.50;99.90;;;;;;5036152;28;20483;-61
2022/11/23 00:41:46;;;;;;;25.27;9.10;;;7.50;99.90;;;;;;5036679;28;20988;-60
2022/11/23 00:44:13;;;;;;;16.13;6.93;;;7.50;99.90;;;;;;5035870;28;20919;-60
2022/11/23 00:46:40;;;;;;;26.47;10.50;;;;;;;;;;5015165;28;20921;-60
2022/11/23 00:49:07;;;;;;;15.57;5.60;;;7.70;99.90;;;;;;5035827;28;20484;-60
2022/11/23 00:51:35;;;;;;;18.70;7.07;;;7.60;99.90;;;;;;5047582;28;20554;-61
2022/11/23 00:54:05;;;;;;;16.90;8.20;;;7.70;99.90;;;;;;5032772;28;20867;-60
2022/11/23 00:56:34;;;;;;;25.80;9.17;;;7.70;99.90;;;;;;5033217;28;20582;-60
2022/11/23 00:59:02;;;;;;;14.13;5.50;;;7.70;99.90;;;;;;5039199;28;20488;-60
2022/11/23 01:01:32;;;;;;;12.03;6.13;;;7.80;99.90;;;;;;5037412;28;20496;-60
2022/11/23 01:04:00;;;;;;;22.40;7.90;;;7.80;99.90;;;;;;5032309;28;20489;-60
2022/11/23 01:06:28;;;;;;;14.67;6.73;;;7.90;99.90;;;;;;5033939;28;20472;-60
2022/11/23 01:08:57;;;;;;;23.50;5.53;;;7.90;99.90;;;;;;5031611;28;20480;-61
2022/11/23 01:11:27;;;;;;;16.30;6.43;;;7.90;99.90;;;;;;5043693;28;20999;-60
2022/11/23 01:13:54;;;;;;;15.87;6.57;;;7.90;99.90;;;;;;5034369;28;20496;-59
2022/11/23 01:16:22;;;;;;;21.80;6.20;;;7.90;99.90;;;;;;5034692;28;20480;-59
2022/11/23 01:18:53;;;;;;;27.00;8.73;;;7.90;99.90;;;;;;5033493;28;20484;-59
2022/11/23 01:21:19;;;;;;;16.87;5.77;;;7.90;99.90;;;;;;5031443;28;21033;-60
2022/11/23 01:23:46;;;;;;;26.77;8.23;;;7.90;99.90;;;;;;5034610;28;20480;-60
2022/11/23 01:26:13;;;;;;;16.73;5.77;;;7.90;99.90;;;;;;5029403;28;20781;-60
2022/11/23 01:28:41;;;;;;;35.67;11.60;;;7.90;99.90;;;;;;5032799;28;20488;-60
2022/11/23 01:31:10;;;;;;;16.23;6.57;;;8.00;99.90;;;;;;5031542;28;20488;-60
2022/11/23 01:33:38;;;;;;;27.30;8.87;;;8.00;99.90;;;;;;5033318;28;20493;-60
2022/11/23 01:36:10;;;;;;;19.63;7.13;;;8.00;99.90;;;;;;5028338;28;20472;-60
2022/11/23 01:38:37;;;;;;;25.97;10.70;;;8.00;99.90;;;;;;5034794;28;20753;-60
2022/11/23 01:41:04;;;;;;;27.40;7.87;;;8.00;99.90;;;;;;5032518;28;20708;-60
2022/11/23 01:43:31;;;;;;;38.07;8.77;;;8.10;99.90;;;;;;5041354;28;21070;-60
2022/11/23 01:46:00;;;;;;;28.63;8.50;;;8.10;99.90;;;;;;5028836;28;20487;-59
2022/11/23 01:48:30;;;;;;;26.37;9.17;;;8.10;99.90;;;;;;5034244;28;20771;-60
2022/11/23 01:51:00;;;;;;;23.87;5.90;;;8.10;99.90;;;;;;5033253;28;20479;-60
2022/11/23 01:53:29;;;;;;;33.40;9.70;;;8.00;99.90;;;;;;5031805;28;20949;-60
2022/11/23 01:56:00;;;;;;;23.60;7.13;;;8.00;99.90;;;;;;5031066;28;20564;-60
2022/11/23 01:58:29;;;;;;;23.90;7.00;;;8.00;99.90;;;;;;5035271;28;20491;-60
2022/11/23 02:00:55;;;;;;;26.87;6.50;;;8.10;99.90;;;;;;5037175;28;20490;-60
2022/11/23 02:03:24;;;;;;;30.70;6.60;;;8.00;99.90;;;;;;5037392;28;20495;-60
2022/11/23 02:05:58;;;;;;;34.80;9.67;;;8.00;99.90;;;;;;5033983;28;20484;-60
2022/11/23 02:08:25;;;;;;;16.67;6.07;;;8.10;99.90;;;;;;5031311;28;20484;-60
2022/11/23 02:10:53;;;;;;;33.33;8.70;;;8.00;99.90;;;;;;5031735;28;20492;-61
2022/11/23 02:13:20;;;;;;;13.77;4.80;;;8.00;99.90;;;;;;5033243;28;20697;-60
2022/11/23 02:15:47;;;;;;;31.17;9.33;;;8.10;99.90;;;;;;5032550;28;20525;-60
2022/11/23 02:18:16;;;;;;;22.60;5.80;;;8.10;99.90;;;;;;5035264;28;20491;-61
2022/11/23 02:20:45;;;;;;;38.40;11.47;;;8.10;99.90;;;;;;5033563;28;20538;-60
2022/11/23 02:23:22;;;;;;;20.63;6.03;;;8.10;99.90;;;;;;5026990;28;20495;-60
2022/11/23 02:25:59;;;;;;;31.20;10.33;;;8.10;99.90;;;;;;5017813;28;20901;-60
2022/11/23 02:28:31;;;;;;;21.67;6.97;;;8.10;99.90;;;;;;5036398;28;20475;-60
2022/11/23 02:30:58;;;;;;;15.53;5.80;;;8.10;99.90;;;;;;5033265;28;21052;-60
2022/11/23 02:33:24;;;;;;;20.63;6.30;;;8.10;99.90;;;;;;5041260;28;20490;-60
2022/11/23 02:35:54;;;;;;;30.17;8.17;;;8.10;99.90;;;;;;5033562;28;20513;-60
2022/11/23 02:38:21;;;;;;;17.67;6.03;;;8.10;99.90;;;;;;5041023;28;20485;-59
2022/11/23 02:40:48;;;;;;;30.40;10.00;;;8.10;99.90;;;;;;5034802;28;20519;-60
2022/11/23 02:43:16;;;;;;;13.07;5.23;;;8.10;99.90;;;;;;5034161;28;20831;-60
2022/11/23 02:45:48;;;;;;;42.47;9.87;;;8.10;99.90;;;;;;5023999;28;20488;-60
2022/11/23 02:48:15;;;;;;;29.70;6.63;;;8.10;99.90;;;;;;5045378;28;20496;-60
2022/11/23 02:50:41;;;;;;;30.60;9.20;;;8.20;99.90;;;;;;5028431;28;20475;-60
2022/11/23 02:53:08;;;;;;;14.87;3.97;;;8.30;99.90;;;;;;5047156;28;20988;-60
2022/11/23 02:55:35;;;;;;;30.47;9.77;;;8.20;99.90;;;;;;5032154;28;21444;-60
2022/11/23 02:58:02;;;;;;;21.33;7.07;;;8.10;99.90;;;;;;5035794;28;20496;-60
2022/11/23 03:00:30;;;;;;;29.13;7.90;;;8.20;99.90;;;;;;5035422;28;20477;-60
2022/11/23 03:03:00;;;;;;;23.20;6.93;;;8.20;99.90;;;;;;5034231;28;20736;-61
2022/11/23 03:05:26;;;;;;;29.67;7.47;;;8.20;99.90;;;;;;5029478;28;20888;-60
2022/11/23 03:07:53;;;;;;;16.63;5.60;;;8.20;99.90;;;;;;5042017;28;20537;-61
2022/11/23 03:10:20;;;;;;;15.43;5.43;;;8.10;99.90;;;;;;5039379;28;20480;-60
2022/11/23 03:12:47;;;;;;;40.97;10.60;;;8.10;99.90;;;;;;5034757;28;20977;-60
2022/11/23 03:15:14;;;;;;;20.33;6.27;;;8.20;99.90;;;;;;5035087;28;20480;-60
2022/11/23 03:17:42;;;;;;;32.33;11.40;;;8.10;99.90;;;;;;5033821;28;20471;-61
2022/11/23 03:20:10;;;;;;;20.17;4.57;;;8.20;99.90;;;;;;5033697;28;20479;-60
2022/11/23 03:22:37;;;;;;;22.27;7.00;;;8.20;99.90;;;;;;5040798;28;20968;-61
2022/11/23 03:25:04;;;;;;;27.43;8.60;;;8.20;99.90;;;;;;5036001;28;20479;-60
2022/11/23 03:27:32;;;;;;;26.97;6.37;;;8.10;99.90;;;;;;5034164;28;20472;-60
2022/11/23 03:29:59;;;;;;;20.43;5.97;;;8.10;99.90;;;;;;5033771;28;20559;-60
2022/11/23 03:32:26;;;;;;;23.23;8.10;;;8.10;99.90;;;;;;5039450;28;20471;-60
2022/11/23 03:34:54;;;;;;;37.33;8.70;;;8.10;99.90;;;;;;5035645;28;20484;-60
2022/11/23 03:37:20;;;;;;;19.83;5.70;;;8.10;99.90;;;;;;5022959;28;20933;-60
2022/11/23 03:39:47;;;;;;;33.13;11.20;;;8.10;99.90;;;;;;5036824;28;20479;-60
2022/11/23 03:42:14;;;;;;;29.03;5.77;;;8.10;99.90;;;;;;5034573;28;20491;-60
2022/11/23 03:44:40;;;;;;;31.80;10.33;;;8.10;99.90;;;;;;5032991;28;20487;-60
2022/11/23 03:47:07;;;;;;;18.27;6.57;;;8.00;99.90;;;;;;5034541;28;20502;-60
2022/11/23 03:49:34;;;;;;;29.33;7.90;;;8.00;99.90;;;;;;5034668;28;20515;-60
2022/11/23 03:52:02;;;;;;;21.53;7.70;;;8.10;99.90;;;;;;5034972;28;20857;-60
2022/11/23 03:54:29;;;;;;;16.60;6.07;;;8.10;99.90;;;;;;5036141;28;20511;-60
2022/11/23 03:56:55;;;;;;;19.93;4.90;;;8.10;99.90;;;;;;5033019;28;20504;-60
2022/11/23 03:59:22;;;;;;;18.77;6.40;;;8.10;99.90;;;;;;5034144;28;20479;-61
2022/11/23 04:01:49;;;;;;;31.97;9.53;;;8.10;99.90;;;;;;5033723;28;20511;-61
2022/11/23 04:04:17;;;;;;;16.07;5.20;;;8.10;99.90;;;;;;5026499;28;20990;-61
2022/11/23 04:06:44;;;;;;;37.17;12.23;;;8.10;99.90;;;;;;5044736;28;20492;-61
2022/11/23 04:09:13;;;;;;;15.27;6.00;;;8.10;99.90;;;;;;5033034;28;20983;-60
2022/11/23 04:11:40;;;;;;;20.10;6.70;;;8.10;99.90;;;;;;5033329;28;20481;-61
2022/11/23 04:14:06;;;;;;;19.60;7.40;;;8.00;99.90;;;;;;5027807;28;20488;-61
2022/11/23 04:16:33;;;;;;;20.83;7.10;;;8.10;99.90;;;;;;5031558;28;20957;-60
2022/11/23 04:19:00;;;;;;;26.67;7.70;;;8.00;99.90;;;;;;5033226;28;20721;-61
2022/11/23 04:21:26;;;;;;;22.10;7.90;;;8.00;99.90;;;;;;5036693;28;21075;-60
2022/11/23 04:23:53;;;;;;;16.93;6.33;;;8.10;99.90;;;;;;5039768;28;21047;-60
2022/11/23 04:26:21;;;;;;;19.70;5.80;;;8.00;99.90;;;;;;5012913;28;20557;-60
2022/11/23 04:28:48;;;;;;;40.97;11.73;;;8.10;99.90;;;;;;5038651;28;20484;-61
2022/11/23 04:31:15;;;;;;;19.57;7.63;;;8.10;99.90;;;;;;5041401;28;20517;-61
2022/11/23 04:33:41;;;;;;;36.33;10.00;;;8.10;99.90;;;;;;5036733;28;20490;-60
2022/11/23 04:36:09;;;;;;;19.40;6.80;;;9.30;99.90;;;;;;5036391;28;20491;-60
2022/11/23 04:38:35;;;;;;;27.60;9.90;;;8.10;99.90;;;;;;5034836;28;20475;-61
2022/11/23 04:41:02;;;;;;;25.67;6.47;;;8.20;99.90;;;;;;5035211;28;20482;-61
2022/11/23 04:43:31;;;;;;;26.77;7.73;;;8.20;99.90;;;;;;5050420;28;20495;-61
2022/11/23 04:45:58;;;;;;;15.60;5.80;;;8.20;99.90;;;;;;5038950;28;20575;-61
2022/11/23 04:48:24;;;;;;;22.40;6.00;;;8.20;99.90;;;;;;5039738;28;21007;-61
2022/11/23 04:50:51;;;;;;;38.40;10.33;;;8.20;99.90;;;;;;5033674;28;20571;-61
2022/11/23 04:53:18;;;;;;;14.10;6.17;;;8.20;99.90;;;;;;5036483;28;20901;-60
2022/11/23 04:55:46;;;;;;;39.10;11.30;;;8.30;99.90;;;;;;5033734;28;20488;-60
2022/11/23 04:58:13;;;;;;;26.90;7.50;;;8.30;99.90;;;;;;5037183;28;20803;-61
2022/11/23 05:00:41;;;;;;;29.90;9.87;;;8.20;99.90;;;;;;5038192;28;20480;-60
2022/11/23 05:03:07;;;;;;;22.03;5.93;;;8.00;99.90;;;;;;5035115;28;20483;-60
2022/11/23 05:05:36;;;;;;;31.10;10.27;;;8.00;99.90;;;;;;5034424;28;20487;-59
2022/11/23 05:08:03;;;;;;;26.27;7.23;;;8.00;99.90;;;;;;5038135;28;20487;-60
2022/11/23 05:10:30;;;;;;;25.63;6.87;;;8.00;99.90;;;;;;5038364;28;20993;-60
2022/11/23 05:12:57;;;;;;;21.30;5.93;;;7.90;99.90;;;;;;5037289;28;20493;-60
2022/11/23 05:15:23;;;;;;;27.47;8.50;;;7.90;99.90;;;;;;5037281;28;20804;-60
2022/11/23 05:17:52;;;;;;;26.63;7.40;;;7.90;99.90;;;;;;5040344;28;20481;-60
2022/11/23 05:20:19;;;;;;;17.93;5.53;;;7.90;99.90;;;;;;5035345;28;20585;-60
2022/11/23 05:22:46;;;;;;;34.97;9.77;;;7.90;99.90;;;;;;5030170;28;20476;-60
2022/11/23 05:25:12;;;;;;;23.03;6.27;;;7.90;99.90;;;;;;5035226;28;20480;-61
2022/11/23 05:27:39;;;;;;;18.23;6.90;;;7.90;99.90;;;;;;5036382;28;20496;-60
2022/11/23 05:30:07;;;;;;;21.30;6.70;;;7.90;99.90;;;;;;5046610;28;20488;-60
2022/11/23 05:32:34;;;;;;;29.80;7.80;;;8.00;99.90;;;;;;5040906;28;20468;-60
2022/11/23 05:35:03;;;;;;;22.73;7.47;;;7.80;99.90;;;;;;5037596;28;20479;-60
2022/11/23 05:37:30;;;;;;;20.40;6.53;;;7.70;99.90;;;;;;5042139;28;20488;-60
2022/11/23 05:39:56;;;;;;;14.27;6.27;;;7.40;99.90;;;;;;5040587;28;20476;-60
2022/11/23 05:42:23;;;;;;;26.63;7.60;;;7.30;99.90;;;;;;5043342;28;20889;-60
2022/11/23 05:44:50;;;;;;;44.43;11.63;;;7.20;99.90;;;;;;5028057;28;20496;-60
2022/11/23 05:47:17;;;;;;;17.50;5.53;;;7.10;99.90;;;;;;5045713;28;20522;-60
2022/11/23 05:49:44;;;;;;;30.73;9.53;;;7.00;99.90;;;;;;5040511;28;20488;-61
2022/11/23 05:52:12;;;;;;;17.43;6.10;;;7.00;99.90;;;;;;5042280;28;20491;-59
2022/11/23 05:54:38;;;;;;;32.33;9.57;;;6.90;99.90;;;;;;5033434;28;20598;-60
2022/11/23 05:57:05;;;;;;;30.63;6.50;;;6.90;99.90;;;;;;5035942;28;20481;-60
2022/11/23 05:59:32;;;;;;;16.37;6.43;;;7.00;99.90;;;;;;5027863;28;20742;-60
2022/11/23 06:01:59;;;;;;;27.80;7.17;;;7.10;99.90;;;;;;5035333;28;20872;-60
2022/11/23 06:04:25;;;;;;;23.67;7.57;;;7.20;99.90;;;;;;5037293;28;20537;-60
2022/11/23 06:06:53;;;;;;;26.73;9.07;;;7.20;99.90;;;;;;5034568;28;20496;-59
2022/11/23 06:09:21;;;;;;;19.80;5.13;;;7.20;99.90;;;;;;5037126;28;20495;-61
2022/11/23 06:11:48;;;;;;;32.10;10.40;;;7.20;99.90;;;;;;5036927;28;20479;-61
2022/11/23 06:14:14;;;;;;;15.30;4.70;;;7.20;99.90;;;;;;5036149;28;20480;-61
2022/11/23 06:16:41;;;;;;;27.60;9.07;;;7.20;99.90;;;;;;5033916;28;20487;-61
2022/11/23 06:19:08;;;;;;;16.43;6.23;;;7.20;99.90;;;;;;5033756;28;20897;-61
2022/11/23 06:21:34;;;;;;;25.83;8.10;;;7.20;99.90;;;;;;5035542;28;20480;-61
2022/11/23 06:24:01;;;;;;;33.27;8.23;;;7.20;99.90;;;;;;5036540;28;20839;-61
2022/11/23 06:26:29;;;;;;;17.83;6.67;;;7.20;99.90;;;;;;5035244;28;20480;-62
2022/11/23 06:28:57;;;;;;;14.50;5.33;;;7.20;99.90;;;;;;5036277;28;20492;-61
2022/11/23 06:31:24;;;;;;;19.07;6.37;;;7.10;99.90;;;;;;5035626;28;20472;-60
2022/11/23 06:33:52;;;;;;;29.03;8.83;;;7.00;99.90;;;;;;5034946;28;20472;-60
2022/11/23 06:36:19;;;;;;;11.30;5.50;;;;;;;;;;5035626;28;20480;-60
2022/11/23 06:38:46;;;;;;;28.23;8.33;;;6.60;99.90;;;;;;5034863;28;20841;-60
2022/11/23 06:41:12;;;;;;;16.70;6.00;;;6.60;99.90;;;;;;5036518;28;20491;-61
2022/11/23 06:43:40;;;;;;;31.93;10.07;;;6.70;99.90;;;;;;5032050;28;20468;-61
2022/11/23 06:46:07;;;;;;;31.73;5.80;;;6.60;99.90;;;;;;5036255;28;20483;-61
2022/11/23 06:48:34;;;;;;;25.80;7.57;;;6.60;99.90;;;;;;5042725;28;20856;-60
2022/11/23 06:51:01;;;;;;;29.40;8.70;;;;;;;;;;5034361;28;20543;-61
2022/11/23 06:53:28;;;;;;;23.07;6.43;;;6.60;99.90;;;;;;5035948;28;20874;-61
2022/11/23 06:55:58;;;;;;;17.57;6.23;;;6.50;99.90;;;;;;5034550;28;20499;-61
2022/11/23 06:58:25;;;;;;;26.97;7.27;;;6.50;99.90;;;;;;5035568;28;21125;-61
2022/11/23 07:00:53;;;;;;;33.60;10.60;;;6.50;99.90;;;;;;5032304;28;21032;-61
2022/11/23 07:03:22;;;;;;;16.47;6.60;;;6.50;99.90;;;;;;5035613;28;20488;-61
2022/11/23 07:05:49;;;;;;;51.00;11.50;;;6.50;99.90;;;;;;5034479;28;20750;-61
2022/11/23 07:08:15;;;;;;;16.80;6.67;;;5.50;99.90;;;;;;5024864;28;20480;-61
2022/11/23 07:10:42;;;;;;;42.57;10.77;;;6.50;99.90;;;;;;5035621;28;20479;-61
2022/11/23 07:13:10;;;;;;;23.13;7.27;;;6.60;99.90;;;;;;5031115;28;21000;-61
2022/11/23 07:15:37;;;;;;;45.93;11.77;;;6.50;99.90;;;;;;5034061;28;20491;-61
2022/11/23 07:18:06;;;;;;;29.27;8.43;;;6.60;99.90;;;;;;5029854;28;20908;-61
2022/11/23 07:20:33;;;;;;;30.40;8.60;;;6.60;99.90;;;;;;5035971;28;20876;-61
2022/11/23 07:23:01;;;;;;;28.03;8.70;;;6.60;99.90;;;;;;5035555;28;21004;-61
2022/11/23 07:25:28;;;;;;;45.90;12.80;;;6.60;99.90;;;;;;5033944;28;20488;-61
2022/11/23 07:27:56;;;;;;;43.93;7.80;;;6.50;99.90;;;;;;5035050;28;20724;-61
2022/11/23 07:30:23;;;;;;;20.97;7.60;;;6.40;99.90;;;;;;5019713;28;20484;-61
2022/11/23 07:32:50;;;;;;;48.67;11.00;;;6.30;99.90;;;;;;5034979;28;20469;-61
2022/11/23 07:35:18;;;;;;;26.13;5.80;;;6.20;99.90;;;;;;5030555;28;20547;-61
2022/11/23 07:37:45;;;;;;;32.63;10.27;;;6.30;99.90;;;;;;5031220;28;20518;-61
2022/11/23 07:40:12;;;;;;;17.17;6.57;;;6.40;99.90;;;;;;5047272;28;20484;-61
2022/11/23 07:42:39;;;;;;;28.60;7.70;;;6.40;99.90;;;;;;5036403;28;20487;-61
2022/11/23 07:45:07;;;;;;;26.23;6.87;;;6.30;99.90;;;;;;5036599;28;20483;-61
2022/11/23 07:47:33;;;;;;;34.83;10.43;;;6.30;99.90;;;;;;5035643;28;20483;-62
2022/11/23 07:50:00;;;;;;;26.17;7.80;;;5.40;99.90;;;;;;5036824;28;20479;-61
2022/11/23 07:52:29;;;;;;;20.27;6.43;;;6.30;99.90;;;;;;5031608;28;20975;-61
2022/11/23 07:54:56;;;;;;;25.47;7.90;;;6.20;99.90;;;;;;5030783;28;20472;-60
2022/11/23 07:57:23;;;;;;;30.53;7.60;;;7.10;99.90;;;;;;5033176;28;20833;-60
2022/11/23 07:59:49;;;;;;;34.33;10.97;;;8.30;99.90;;;;;;5035953;28;20685;-60
2022/11/23 08:02:16;;;;;;;19.60;7.70;;;9.00;99.90;;;;;;5037269;28;20487;-60
2022/11/23 08:04:43;;;;;;;26.90;8.27;;;10.10;99.90;;;;;;5033079;28;20476;-61
2022/11/23 08:07:10;;;;;;;15.67;6.53;;;10.80;99.60;;;;;;5036074;28;20483;-60
2022/11/23 08:09:38;;;;;;;28.37;10.10;;;11.50;99.50;;;;;;5038915;28;20491;-61
2022/11/23 08:12:06;;;;;;;25.33;6.60;;;12.80;97.40;;;;;;5037503;28;20468;-61
2022/11/23 08:14:33;;;;;;;14.10;6.17;;;13.50;96.40;;;;;;5038841;28;20480;-61
2022/11/23 08:16:59;;;;;;;17.80;7.17;;;14.30;95.60;;;;;;5038682;28;21016;-61
2022/11/23 08:19:26;;;;;;;12.80;5.30;;;15.50;94.10;;;;;;5037847;28;20472;-62
2022/11/23 08:21:53;;;;;;;22.97;9.93;;;16.20;93.40;;;;;;5025706;28;21295;-62
2022/11/23 08:24:20;;;;;;;17.33;7.73;;;16.70;92.60;;;;;;5035679;28;20477;-62
2022/11/23 08:26:48;;;;;;;26.33;8.73;;;17.10;91.20;;;;;;5037968;28;20511;-62
2022/11/23 08:29:15;;;;;;;9.57;4.70;;;17.40;90.70;;;;;;5045640;28;20482;-62
2022/11/23 08:31:42;;;;;;;21.90;10.70;;;17.60;90.10;;;;;;5053401;28;20475;-62
2022/11/23 08:34:09;;;;;;;14.80;4.70;;;18.00;89.60;;;;;;5049746;28;20510;-62
2022/11/23 08:36:37;;;;;;;17.40;8.03;;;18.20;89.10;;;;;;5038155;28;21009;-62
2022/11/23 08:39:04;;;;;;;15.10;7.17;;;18.30;86.40;;;;;;5043840;28;20483;-61
2022/11/23 08:41:31;;;;;;;25.20;8.03;;;18.00;86.10;;;;;;5039739;28;20484;-61
2022/11/23 08:43:59;;;;;;;40.17;9.10;;;18.10;89.10;;;;;;5039852;28;20490;-61
2022/11/23 08:46:26;;;;;;;16.67;8.20;;;18.20;88.80;;;;;;5047812;28;20862;-61
2022/11/23 08:48:52;;;;;;;14.70;7.30;;;18.40;88.70;;;;;;5049036;28;20486;-60
2022/11/23 08:51:21;;;;;;;11.60;4.57;;;18.50;87.50;;;;;;5051478;28;20762;-61
2022/11/23 08:53:48;;;;;;;24.17;11.03;;;18.40;86.60;;;;;;5047144;28;20487;-61
2022/11/23 08:56:15;;;;;;;14.77;5.17;;;18.10;86.50;;;;;;5036135;28;20530;-61
2022/11/23 08:58:42;;;;;;;21.00;10.30;;;17.90;87.30;;;;;;5048900;28;20470;-61
2022/11/23 09:01:11;;;;;;;19.40;6.40;;;17.80;89.50;;;;;;5029224;28;20744;-61
2022/11/23 09:03:39;;;;;;;27.67;9.70;;;17.50;89.50;;;;;;5046290;28;20487;-61
2022/11/23 09:06:06;;;;;;;23.00;8.47;;;17.30;89.50;;;;;;5046841;28;20488;-61
2022/11/23 09:08:33;;;;;;;19.73;7.47;;;16.90;88.80;;;;;;5049566;28;20487;-61
2022/11/23 09:11:00;;;;;;;22.23;8.07;;;16.40;89.20;;;;;;5049339;28;20886;-61
2022/11/23 09:13:27;;;;;;;23.73;7.87;;;16.10;90.30;;;;;;5047295;28;20569;-61
2022/11/23 09:15:57;;;;;;;26.23;9.33;;;15.80;90.60;;;;;;5045952;28;20986;-61
2022/11/23 09:18:26;;;;;;;19.67;6.40;;;15.60;91.10;;;;;;5052515;28;20450;-61
2022/11/23 09:20:52;;;;;;;30.13;9.17;;;15.20;91.00;;;;;;5046042;28;20484;-61
2022/11/23 09:23:19;;;;;;;23.00;6.30;;;14.90;91.70;;;;;;5055724;28;20478;-61
2022/11/23 09:25:48;;;;;;;32.57;11.33;;;14.90;92.60;;;;;;5047255;28;20488;-61
2022/11/23 09:28:15;;;;;;;18.60;6.37;;;14.90;91.90;;;;;;5049348;28;20847;-61
2022/11/23 09:30:42;;;;;;;28.03;10.83;;;14.60;92.10;;;;;;5049619;28;20490;-61
2022/11/23 09:33:09;;;;;;;24.27;7.97;;;14.50;92.70;;;;;;5055891;28;20699;-61
2022/11/23 09:35:37;;;;;;;31.67;9.73;;;14.30;92.90;;;;;;5046919;28;20488;-61
2022/11/23 09:38:04;;;;;;;34.40;8.83;;;14.40;93.70;;;;;;5048767;28;20490;-61
2022/11/23 09:40:33;;;;;;;18.47;6.87;;;14.20;92.60;;;;;;5042598;28;20503;-61
2022/11/23 09:43:33;;;;;;;19.23;7.70;;;14.10;93.80;;;;;;5063849;28;20496;-61
2022/11/23 09:46:08;;;;;;;30.93;10.40;;;14.20;93.30;;;;;;5045096;28;20494;-60
2022/11/23 09:49:12;;;;;;;43.70;9.47;;;14.10;93.00;;;;;;5047474;28;20480;-61
2022/11/23 09:51:42;;;;;;;26.50;8.87;;;14.00;92.20;;;;;;5048236;28;20858;-61
2022/11/23 09:54:24;;;;;;;19.73;7.30;;;13.50;90.30;;;;;;5046333;28;21081;-61
2022/11/23 09:56:52;;;;;;;27.50;8.97;;;13.40;92.20;;;;;;5044217;28;21001;-61
2022/11/23 09:59:31;;;;;;;19.57;6.50;;;13.30;93.20;;;;;;5049769;28;20499;-61
2022/11/23 10:02:00;;;;;;;25.43;7.80;;;13.10;93.00;;;;;;5047163;28;20482;-61
2022/11/23 10:04:30;;;;;;;20.70;4.90;;;12.70;91.20;;;;;;5054435;28;20826;-62
2022/11/23 10:07:07;;;;;;;28.30;8.10;;;12.40;91.60;;;;;;5045132;28;20490;-62
2022/11/23 10:09:43;;;;;;;38.60;6.97;;;12.10;91.90;;;;;;5049539;28;20474;-62
2022/11/23 10:12:25;;;;;;;27.00;8.90;;;12.00;91.70;;;;;;5042909;28;21001;-62
2022/11/23 10:15:00;;;;;;;25.93;8.50;;;11.70;91.80;;;;;;5045132;28;20526;-63
2022/11/23 10:17:43;;;;;;;18.37;6.93;;;11.60;91.40;;;;;;5044411;28;20816;-62
2022/11/23 10:20:21;;;;;;;15.93;5.30;;;11.40;91.50;;;;;;5031709;28;20502;-62
2022/11/23 10:22:57;;;;;;;28.53;8.97;;;11.50;92.00;;;;;;5040356;28;20479;-62
2022/11/23 10:25:25;;;;;;;19.53;5.87;;;11.50;92.20;;;;;;5039285;28;20470;-62
2022/11/23 10:27:58;;;;;;;33.43;8.70;;;11.60;91.60;;;;;;5039942;28;21026;-62
2022/11/23 10:30:25;;;;;;;28.53;8.57;;;11.60;91.60;;;;;;5045271;28;20482;-62
2022/11/23 10:33:00;;;;;;;25.30;7.40;;;10.40;91.90;;;;;;5033351;28;20472;-62
2022/11/23 10:35:29;;;;;;;45.17;11.40;;;11.50;91.30;;;;;;5036540;28;20485;-63
2022/11/23 10:38:10;;;;;;;23.30;7.03;;;11.50;91.20;;;;;;5054473;28;20637;-62
2022/11/23 10:40:40;;;;;;;20.23;6.77;;;11.60;91.70;;;;;;5050166;28;20478;-62
2022/11/23 10:43:12;;;;;;;37.07;9.30;;;11.70;90.90;;;;;;5041968;28;20625;-62
2022/11/23 10:45:39;;;;;;;34.60;9.70;;;11.70;92.20;;;;;;5047558;28;20480;-62
2022/11/23 10:48:06;;;;;;;29.73;6.53;;;11.60;91.30;;;;;;5050901;28;20479;-62
2022/11/23 10:50:36;;;;;;;17.10;5.27;;;11.70;91.00;;;;;;5050186;28;20475;-62
2022/11/23 10:53:21;;;;;;;31.77;8.57;;;11.70;91.20;;;;;;5044923;28;20601;-62
2022/11/23 10:55:52;;;;;;;25.20;8.60;;;11.60;91.70;;;;;;5045295;28;20883;-62
2022/11/23 10:58:26;;;;;;;15.87;5.60;;;11.70;91.50;;;;;;5041106;28;20579;-62
2022/11/23 11:01:00;;;;;;;21.83;7.23;;;11.50;91.00;;;;;;5036419;28;20491;-62
2022/11/23 11:03:31;;;;;;;17.40;5.37;;;11.60;91.60;;;;;;5054648;28;20678;-62
2022/11/23 11:05:58;;;;;;;18.00;6.40;;;11.60;91.90;;;;;;5034467;28;20482;-62
2022/11/23 11:08:30;;;;;;;30.63;6.67;;;11.70;91.80;;;;;;5038382;28;20478;-62
2022/11/23 11:10:59;;;;;;;20.60;6.87;;;11.70;91.50;;;;;;5049107;28;20539;-62
2022/11/23 11:13:30;;;;;;;17.30;7.60;;;11.90;92.30;;;;;;5046922;28;20475;-62
2022/11/23 11:15:59;;;;;;;18.83;7.70;;;11.80;91.60;;;;;;5042233;28;20471;-62
2022/11/23 11:18:28;;;;;;;13.67;5.27;;;11.80;92.70;;;;;;5034416;28;20471;-63
2022/11/23 11:20:58;;;;;;;19.10;6.40;;;11.90;92.70;;;;;;5049301;28;20467;-62
2022/11/23 11:23:28;;;;;;;12.50;5.83;;;11.90;91.70;;;;;;5045106;28;20479;-62
2022/11/23 11:26:05;;;;;;;9.27;5.17;;;12.00;92.20;;;;;;5044200;28;20898;-62
2022/11/23 11:28:36;;;;;;;14.23;4.80;;;11.90;91.40;;;;;;5034585;28;20483;-62
2022/11/23 11:31:23;;;;;;;15.50;6.60;;;12.00;92.50;;;;;;5052661;28;20483;-62
2022/11/23 11:33:56;;;;;;;19.70;8.60;;;11.90;91.70;;;;;;5048378;28;20494;-63
2022/11/23 11:36:26;;;;;;;10.20;5.70;;;12.00;92.30;;;;;;5042863;28;20475;-62
2022/11/23 11:38:58;;;;;;;19.67;6.70;;;11.90;92.00;;;;;;5066832;28;20475;-62
2022/11/23 11:41:28;;;;;;;13.20;6.30;;;12.00;91.80;;;;;;5050497;28;20719;-62
2022/11/23 11:44:03;;;;;;;15.20;5.93;;;12.00;92.00;;;;;;5053606;28;20509;-62
2022/11/23 11:46:36;;;;;;;12.83;6.40;;;12.00;91.50;;;;;;5050940;28;20808;-62
2022/11/23 11:49:07;;;;;;;14.40;6.33;;;11.90;91.70;;;;;;5049591;28;20488;-62
2022/11/23 11:51:37;;;;;;;16.97;6.23;;;11.90;91.30;;;;;;5050205;28;20475;-62
2022/11/23 11:54:15;;;;;;;11.90;5.93;;;12.00;91.40;;;;;;5051054;28;20482;-62
2022/11/23 11:56:44;;;;;;;27.57;4.80;;;12.10;91.10;;;;;;5046670;28;20474;-62
2022/11/23 11:59:16;;;;;;;16.03;6.67;;;12.10;91.30;;;;;;5050085;28;20498;-63
2022/11/23 12:01:51;;;;;;;15.50;7.30;;;12.00;90.90;;;;;;5046063;28;20628;-62
2022/11/23 12:04:24;;;;;;;10.80;3.80;;;12.00;90.50;;;;;;5053999;28;20833;-62
2022/11/23 12:06:59;;;;;;;14.80;7.10;;;12.00;91.10;;;;;;5032657;28;20486;-62
2022/11/23 12:09:33;;;;;;;22.93;7.07;;;11.90;91.10;;;;;;5060752;28;20479;-61
2022/11/23 12:12:00;;;;;;;24.43;10.23;;;12.10;91.60;;;;;;5042162;28;20533;-62
2022/11/23 12:14:27;;;;;;;18.53;6.50;;;12.00;90.80;;;;;;5059863;28;20517;-62
2022/11/23 12:17:00;;;;;;;20.20;8.10;;;11.90;90.70;;;;;;5041783;28;20486;-62
2022/11/23 12:19:33;;;;;;;11.67;4.80;;;12.00;90.80;;;;;;5052388;28;20483;-62
2022/11/23 12:22:31;;;;;;;15.13;4.43;;;12.20;91.50;;;;;;5048733;28;20874;-61
2022/11/23 12:25:11;;;;;;;16.60;5.53;;;12.40;90.60;;;;;;5040644;28;20490;-62
2022/11/23 12:27:45;;;;;;;17.97;7.10;;;12.30;90.10;;;;;;5047034;28;20481;-62
2022/11/23 12:30:22;;;;;;;6.93;3.73;;;12.30;90.00;;;;;;5052094;28;20610;-62
2022/11/23 12:33:05;;;;;;;10.47;5.50;;;12.40;90.40;;;;;;5047877;28;20479;-62
2022/11/23 12:35:59;;;;;;;38.60;9.73;;;12.50;91.00;;;;;;5041687;28;20808;-62
2022/11/23 12:38:31;;;;;;;18.93;8.37;;;12.30;90.10;;;;;;5036042;28;20472;-61
2022/11/23 12:41:22;;;;;;;17.57;4.00;;;12.30;90.40;;;;;;5050304;28;20518;-63
2022/11/23 12:44:00;;;;;;;10.60;5.83;;;12.20;89.20;;;;;;5051770;28;20483;-61
2022/11/23 12:46:36;;;;;;;20.93;7.17;;;12.20;90.00;;;;;;5032159;28;20486;-61
2022/11/23 12:49:16;;;;;;;14.80;6.80;;;12.00;90.40;;;;;;5050004;28;20500;-62
2022/11/23 12:51:52;;;;;;;14.93;4.17;;;12.30;90.50;;;;;;5047350;28;20499;-61